createdAt,value
2023-02-23T00:00:35.616Z,99651.44
2023-02-23T00:03:04.340Z,99660.00
2023-02-23T00:05:37.144Z,99660.94
2023-02-23T00:08:05.270Z,99660.00
2023-02-23T00:10:33.512Z,99655.59
2023-02-23T00:13:01.549Z,99658.19
2023-02-23T00:15:30.518Z,99650.56
2023-02-23T00:17:58.730Z,99655.69
2023-02-23T00:20:27.558Z,99644.59
2023-02-23T00:22:56.398Z,99657.44
2023-02-23T00:25:24.947Z,99652.28
2023-02-23T00:27:52.630Z,99650.56
2023-02-23T00:30:21.346Z,99647.91
2023-02-23T00:32:52.372Z,99647.09
2023-02-23T00:35:20.176Z,99649.56
2023-02-23T00:37:49.545Z,99647.00
2023-02-23T00:40:20.806Z,99642.91
2023-02-23T00:42:49.845Z,99644.53
2023-02-23T00:45:17.481Z,99647.16
2023-02-23T00:47:48.348Z,99642.88
2023-02-23T00:50:19.224Z,99638.56
2023-02-23T00:52:47.180Z,99639.41
2023-02-23T00:55:15.969Z,99641.16
2023-02-23T00:57:43.625Z,99636.03
2023-02-23T01:00:20.077Z,99634.34
2023-02-23T01:02:48.804Z,99640.44
2023-02-23T01:05:18.068Z,99636.19
2023-02-23T01:07:47.276Z,99636.28
2023-02-23T01:10:20.116Z,99642.28
2023-02-23T01:12:50.134Z,99632.09
2023-02-23T01:15:19.013Z,99642.38
2023-02-23T01:17:47.600Z,99638.09
2023-02-23T01:20:19.122Z,99641.53
2023-02-23T01:22:49.306Z,99638.88
2023-02-23T01:25:17.620Z,99640.59
2023-02-23T01:27:46.107Z,99635.47
2023-02-23T01:30:15.975Z,99636.31
2023-02-23T01:32:44.847Z,99636.38
2023-02-23T01:35:13.466Z,99638.88
2023-02-23T01:37:44.010Z,99640.44
2023-02-23T01:40:15.855Z,99643.00
2023-02-23T01:42:46.166Z,99637.84
2023-02-23T01:45:25.640Z,99642.13
2023-02-23T01:47:55.800Z,99627.63
2023-02-23T01:50:25.468Z,99631.91
2023-02-23T01:52:56.631Z,99633.72
2023-02-23T01:55:28.987Z,99623.47
2023-02-23T01:58:04.042Z,99633.81
2023-02-23T02:00:36.470Z,99628.69
2023-02-23T02:03:12.061Z,99630.41
2023-02-23T02:05:40.914Z,99623.56
2023-02-23T02:08:11.510Z,99633.00
2023-02-23T02:10:45.737Z,99632.19
2023-02-23T02:13:21.717Z,99631.38
2023-02-23T02:16:13.389Z,99621.13
2023-02-23T02:18:55.114Z,99625.34
2023-02-23T02:21:40.061Z,99628.84
2023-02-23T02:24:47.423Z,99624.56
2023-02-23T02:27:26.771Z,99624.47
2023-02-23T02:30:39.336Z,99620.19
2023-02-23T02:33:55.442Z,99622.88
2023-02-23T02:36:59.481Z,99620.28
2023-02-23T02:39:36.538Z,99614.16
2023-02-23T02:42:17.972Z,99620.16
2023-02-23T02:44:53.393Z,99615.00
2023-02-23T02:47:27.939Z,99616.69
2023-02-23T02:50:04.185Z,99612.47
2023-02-23T02:52:40.109Z,99610.78
2023-02-23T02:55:16.663Z,99613.41
2023-02-23T02:57:47.057Z,99608.19
2023-02-23T03:00:36.947Z,99601.41
2023-02-23T03:03:22.113Z,99599.66
2023-02-23T03:06:12.707Z,99615.97
2023-02-23T03:09:07.093Z,99616.03
2023-02-23T03:11:58.612Z,99609.16
2023-02-23T03:14:51.962Z,99610.03
2023-02-23T03:17:48.922Z,99611.63
2023-02-23T03:20:44.159Z,99617.72
2023-02-23T03:23:38.113Z,99619.44
2023-02-23T03:26:30.920Z,99608.28
2023-02-23T03:29:23.000Z,99616.75
2023-02-23T03:32:18.212Z,99614.25
2023-02-23T03:35:10.470Z,99616.78
2023-02-23T03:38:00.766Z,99620.19
2023-02-23T03:40:51.915Z,99618.47
2023-02-23T03:43:45.124Z,99621.88
2023-02-23T03:46:32.747Z,99615.97
2023-02-23T03:49:22.732Z,99620.19
2023-02-23T03:52:12.288Z,99618.41
2023-02-23T03:55:03.623Z,99616.69
2023-02-23T03:57:52.863Z,99614.78
2023-02-23T04:00:44.940Z,99619.00
2023-02-23T04:03:33.781Z,99618.09
2023-02-23T04:06:20.472Z,99615.47
2023-02-23T04:09:08.753Z,99614.63
2023-02-23T04:12:03.600Z,99611.06
2023-02-23T04:14:36.423Z,99623.06
2023-02-23T04:17:06.245Z,99620.53
2023-02-23T04:19:33.774Z,99623.16
2023-02-23T04:22:01.338Z,99628.34
2023-02-23T04:24:29.637Z,99624.97
2023-02-23T04:26:57.151Z,99622.44
2023-02-23T04:29:25.022Z,99628.44
2023-02-23T04:31:54.074Z,99625.78
2023-02-23T04:34:23.018Z,99624.97
2023-02-23T04:36:51.225Z,99630.13
2023-02-23T04:39:18.923Z,99622.41
2023-02-23T04:41:48.875Z,99630.91
2023-02-23T04:44:16.413Z,99623.22
2023-02-23T04:46:44.304Z,99628.28
2023-02-23T04:49:12.208Z,99624.00
2023-02-23T04:51:41.084Z,99626.47
2023-02-23T04:54:10.370Z,99623.03
2023-02-23T04:56:39.307Z,99627.25
2023-02-23T04:59:06.834Z,99618.69
2023-02-23T05:01:34.479Z,99618.69
2023-02-23T05:04:02.087Z,99617.88
2023-02-23T05:06:31.859Z,99610.97
2023-02-23T05:09:00.799Z,99621.25
2023-02-23T05:11:28.335Z,99617.88
2023-02-23T05:13:56.168Z,99626.56
2023-02-23T05:16:23.735Z,99626.63
2023-02-23T05:18:52.111Z,99619.75
2023-02-23T05:21:19.868Z,99622.34
2023-02-23T05:23:47.851Z,99623.22
2023-02-23T05:26:16.758Z,99631.00
2023-02-23T05:28:44.538Z,99627.56
2023-02-23T05:31:12.493Z,99621.59
2023-02-23T05:33:42.493Z,99623.22
2023-02-23T05:36:11.899Z,99631.84
2023-02-23T05:38:39.811Z,99623.31
2023-02-23T05:41:07.956Z,99622.44
2023-02-23T05:43:36.850Z,99623.31
2023-02-23T05:46:07.603Z,99626.66
2023-02-23T05:48:35.674Z,99626.63
2023-02-23T05:51:03.627Z,99623.16
2023-02-23T05:53:31.300Z,99622.28
2023-02-23T05:55:58.933Z,99630.03
2023-02-23T05:58:26.566Z,99628.28
2023-02-23T06:00:55.632Z,99635.00
2023-02-23T06:03:23.550Z,99627.19
2023-02-23T06:05:52.024Z,99629.78
2023-02-23T06:08:20.108Z,99630.66
2023-02-23T06:10:48.324Z,99635.78
2023-02-23T06:13:16.282Z,99630.75
2023-02-23T06:15:45.105Z,99642.75
2023-02-23T06:18:14.106Z,99641.97
2023-02-23T06:20:41.804Z,99638.56
2023-02-23T06:23:09.354Z,99640.25
2023-02-23T06:25:36.882Z,99645.34
2023-02-23T06:28:05.613Z,99645.31
2023-02-23T06:30:33.153Z,99650.47
2023-02-23T06:33:00.973Z,99649.72
2023-02-23T06:35:30.145Z,99653.13
2023-02-23T06:37:57.775Z,99657.41
2023-02-23T06:40:25.666Z,99664.16
2023-02-23T06:42:53.593Z,99662.41
2023-02-23T06:45:21.166Z,99670.84
2023-02-23T06:47:48.901Z,99667.38
2023-02-23T06:50:16.900Z,99670.94
2023-02-23T06:52:45.964Z,99671.19
2023-02-23T06:55:14.342Z,99668.81
2023-02-23T06:57:42.540Z,99678.38
2023-02-23T07:00:12.566Z,99680.19
2023-02-23T07:02:40.232Z,99679.66
2023-02-23T07:05:08.351Z,99681.31
2023-02-23T07:07:35.975Z,99685.28
2023-02-23T07:10:05.396Z,99683.44
2023-02-23T07:12:33.400Z,99688.44
2023-02-23T07:15:01.204Z,99693.47
2023-02-23T07:17:28.928Z,99697.66
2023-02-23T07:19:56.498Z,99694.22
2023-02-23T07:22:25.279Z,99700.31
2023-02-23T07:24:52.790Z,99703.69
2023-02-23T07:27:21.717Z,99702.81
2023-02-23T07:29:49.230Z,99707.09
2023-02-23T07:32:16.934Z,99702.66
2023-02-23T07:34:45.808Z,99705.28
2023-02-23T07:37:13.338Z,99709.59
2023-02-23T07:39:40.876Z,99706.16
2023-02-23T07:42:08.407Z,99701.81
2023-02-23T07:44:38.113Z,99706.09
2023-02-23T07:47:05.790Z,99706.09
2023-02-23T07:49:34.208Z,99706.25
2023-02-23T07:52:01.836Z,99713.22
2023-02-23T07:54:29.869Z,99710.72
2023-02-23T07:56:57.537Z,99704.84
2023-02-23T07:59:25.285Z,99706.59
2023-02-23T08:01:54.194Z,99702.41
2023-02-23T08:04:21.848Z,99711.13
2023-02-23T08:06:49.401Z,99713.84
2023-02-23T08:09:16.929Z,99711.44
2023-02-23T08:11:45.014Z,99713.22
2023-02-23T08:14:12.980Z,99708.25
2023-02-23T08:16:40.613Z,99721.31
2023-02-23T08:19:10.987Z,99703.47
2023-02-23T08:21:38.752Z,99709.56
2023-02-23T08:24:07.327Z,99708.84
2023-02-23T08:26:36.582Z,99712.41
2023-02-23T08:29:04.187Z,99705.69
2023-02-23T08:31:31.947Z,99709.38
2023-02-23T08:34:00.021Z,99706.81
2023-02-23T08:36:29.384Z,99701.69
2023-02-23T08:38:57.426Z,99714.63
2023-02-23T08:41:25.488Z,99703.50
2023-02-23T08:43:53.044Z,99711.50
2023-02-23T08:46:22.192Z,99709.06
2023-02-23T08:48:49.737Z,99709.22
2023-02-23T08:51:17.395Z,99710.22
2023-02-23T08:53:48.862Z,99715.56
2023-02-23T08:56:16.394Z,99712.28
2023-02-23T08:58:44.577Z,99717.63
2023-02-23T09:01:18.848Z,99711.97
2023-02-23T09:03:46.705Z,99714.78
2023-02-23T09:06:17.929Z,99711.63
2023-02-23T09:08:45.738Z,99714.41
2023-02-23T09:11:14.581Z,99713.72
2023-02-23T09:13:42.190Z,99717.22
2023-02-23T09:16:10.028Z,99709.66
2023-02-23T09:18:38.731Z,99715.91
2023-02-23T09:21:08.461Z,99708.28
2023-02-23T09:23:37.039Z,99716.84
2023-02-23T09:26:05.470Z,99713.47
2023-02-23T09:28:34.920Z,99714.56
2023-02-23T09:31:07.355Z,99715.66
2023-02-23T09:33:35.026Z,99715.66
2023-02-23T09:36:05.852Z,99715.84
2023-02-23T09:38:33.432Z,99721.13
2023-02-23T09:41:01.002Z,99720.44
2023-02-23T09:43:34.587Z,99709.41
2023-02-23T09:46:09.994Z,99717.28
2023-02-23T09:48:37.607Z,99716.59
2023-02-23T09:51:09.479Z,99717.53
2023-02-23T09:53:40.690Z,99715.94
2023-02-23T09:56:14.708Z,99712.56
2023-02-23T09:58:42.634Z,99719.53
2023-02-23T10:01:50.480Z,99722.16
2023-02-23T10:04:23.602Z,99722.97
2023-02-23T10:06:57.190Z,99721.22
2023-02-23T10:09:33.000Z,99720.25
2023-02-23T10:12:08.385Z,99728.63
2023-02-23T10:14:57.160Z,99721.78
2023-02-23T10:17:36.446Z,99717.47
2023-02-23T10:20:13.958Z,99716.66
2023-02-23T10:22:42.139Z,99718.38
2023-02-23T10:25:14.221Z,99723.66
2023-02-23T10:27:45.056Z,99722.72
2023-02-23T10:30:20.731Z,99721.88
2023-02-23T10:32:55.170Z,99720.03
2023-02-23T10:35:24.478Z,99719.03
2023-02-23T10:37:53.722Z,99734.63
2023-02-23T10:40:24.404Z,99736.38
2023-02-23T10:42:53.357Z,99736.31
2023-02-23T10:45:24.562Z,99736.38
2023-02-23T10:47:57.985Z,99739.72
2023-02-23T10:50:28.892Z,99748.22
2023-02-23T10:53:00.879Z,99737.81
2023-02-23T10:55:30.296Z,99736.09
2023-02-23T10:58:16.865Z,99737.00
2023-02-23T11:00:53.430Z,99731.09
2023-02-23T11:03:28.677Z,99736.31
2023-02-23T11:05:56.827Z,99733.84
2023-02-23T11:08:29.242Z,99731.25
2023-02-23T11:10:59.345Z,99729.63
2023-02-23T11:13:29.592Z,99726.03
2023-02-23T11:16:02.323Z,99720.81
2023-02-23T11:18:32.140Z,99728.63
2023-02-23T11:21:00.173Z,99722.41
2023-02-23T11:23:30.752Z,99712.88
2023-02-23T11:26:01.147Z,99717.22
2023-02-23T11:28:32.500Z,99713.75
2023-02-23T11:31:05.669Z,99721.53
2023-02-23T11:33:37.205Z,99712.97
2023-02-23T11:36:26.481Z,99709.28
2023-02-23T11:39:03.128Z,99715.28
2023-02-23T11:41:31.732Z,99705.06
2023-02-23T11:44:02.841Z,99701.69
2023-02-23T11:46:33.790Z,99706.94
2023-02-23T11:49:06.669Z,99694.78
2023-02-23T11:51:36.787Z,99705.28
2023-02-23T11:54:06.053Z,99707.03
2023-02-23T11:56:36.084Z,99694.84
2023-02-23T11:59:08.279Z,99697.47
2023-02-23T12:01:43.906Z,99698.34
2023-02-23T12:04:26.285Z,99697.28
2023-02-23T12:07:25.683Z,99693.88
2023-02-23T12:10:00.264Z,99690.50
2023-02-23T12:12:30.806Z,99682.78
2023-02-23T12:15:03.348Z,99689.69
2023-02-23T12:17:37.485Z,99688.72
2023-02-23T12:20:13.430Z,99687.97
2023-02-23T12:22:45.951Z,99682.00
2023-02-23T12:25:22.929Z,99675.94
2023-02-23T12:28:05.090Z,99676.88
2023-02-23T12:30:44.848Z,99681.19
2023-02-23T12:33:18.085Z,99686.38
2023-02-23T12:35:55.374Z,99674.25
2023-02-23T12:38:30.834Z,99674.19
2023-02-23T12:41:06.517Z,99675.09
2023-02-23T12:43:40.694Z,99668.22
2023-02-23T12:46:13.894Z,99673.44
2023-02-23T12:48:50.609Z,99666.53
2023-02-23T12:51:28.528Z,99665.75
2023-02-23T12:53:56.162Z,99664.09
2023-02-23T12:56:36.475Z,99663.31
2023-02-23T12:59:21.819Z,99660.72
2023-02-23T13:01:54.279Z,99657.31
2023-02-23T13:04:39.882Z,99659.88
2023-02-23T13:07:18.011Z,99656.47
2023-02-23T13:09:56.520Z,99655.59
2023-02-23T13:12:32.498Z,99653.00
2023-02-23T13:15:10.945Z,99646.97
2023-02-23T13:17:44.551Z,99656.50
2023-02-23T13:20:19.616Z,99650.47
2023-02-23T13:22:52.214Z,99651.31
2023-02-23T13:25:34.614Z,99647.00
2023-02-23T13:28:02.994Z,99651.34
2023-02-23T13:30:33.283Z,99645.28
2023-02-23T13:33:04.830Z,99647.88
2023-02-23T13:35:36.568Z,99646.16
2023-02-23T13:38:15.332Z,99646.13
2023-02-23T13:40:48.511Z,99651.31
2023-02-23T13:43:23.252Z,99646.13
2023-02-23T13:46:06.118Z,99645.22
2023-02-23T13:48:56.026Z,99640.88
2023-02-23T13:51:35.488Z,99650.38
2023-02-23T13:54:22.824Z,99637.38
2023-02-23T13:56:54.150Z,99632.97
2023-02-23T13:59:24.329Z,99636.50
2023-02-23T14:01:54.197Z,99636.50
2023-02-23T14:04:24.978Z,99640.84
2023-02-23T14:06:56.583Z,99634.00
2023-02-23T14:09:31.154Z,99634.06
2023-02-23T14:12:06.085Z,99629.72
2023-02-23T14:14:45.478Z,99635.78
2023-02-23T14:17:51.744Z,99638.34
2023-02-23T14:20:37.046Z,99633.06
2023-02-23T14:23:41.267Z,99638.28
2023-02-23T14:26:17.574Z,99631.44
2023-02-23T14:28:50.298Z,99634.06
2023-02-23T14:31:22.475Z,99629.72
2023-02-23T14:33:57.450Z,99633.19
2023-02-23T14:36:36.984Z,99632.31
2023-02-23T14:39:10.023Z,99634.91
2023-02-23T14:41:46.357Z,99634.91
2023-02-23T14:44:28.190Z,99627.09
2023-02-23T14:47:01.386Z,99622.78
2023-02-23T14:49:32.621Z,99625.38
2023-02-23T14:52:07.398Z,99626.22
2023-02-23T14:54:36.643Z,99631.34
2023-02-23T14:57:07.242Z,99623.53
2023-02-23T14:59:39.328Z,99630.31
2023-02-23T15:02:11.596Z,99629.38
2023-02-23T15:04:39.732Z,99628.47
2023-02-23T15:07:08.657Z,99636.19
2023-02-23T15:09:41.798Z,99644.72
2023-02-23T15:12:20.207Z,99634.38
2023-02-23T15:14:50.580Z,99643.03
2023-02-23T15:17:21.872Z,99641.31
2023-02-23T15:20:00.056Z,99641.28
2023-02-23T15:22:36.275Z,99643.06
2023-02-23T15:25:14.522Z,99641.34
2023-02-23T15:27:45.518Z,99631.88
2023-02-23T15:30:23.658Z,99637.91
2023-02-23T15:33:01.215Z,99639.63
2023-02-23T15:35:30.207Z,99638.72
2023-02-23T15:38:13.990Z,99637.88
2023-02-23T15:40:46.712Z,99646.47
2023-02-23T15:43:15.791Z,99649.84
2023-02-23T15:45:49.394Z,99648.06
2023-02-23T15:48:20.785Z,99642.03
2023-02-23T15:50:50.986Z,99642.88
2023-02-23T15:53:28.909Z,99639.38
2023-02-23T15:56:00.835Z,99639.38
2023-02-23T15:58:31.819Z,99646.22
2023-02-23T16:01:05.638Z,99636.69
2023-02-23T16:03:36.892Z,99644.38
2023-02-23T16:06:06.926Z,99640.94
2023-02-23T16:08:36.894Z,99646.06
2023-02-23T16:11:11.858Z,99646.00
2023-02-23T16:13:44.560Z,99644.22
2023-02-23T16:16:20.204Z,99648.53
2023-02-23T16:18:53.984Z,99646.78
2023-02-23T16:21:23.445Z,99637.28
2023-02-23T16:23:53.756Z,99644.16
2023-02-23T16:26:25.729Z,99642.44
2023-02-23T16:28:59.606Z,99639.81
2023-02-23T16:31:43.414Z,99639.75
2023-02-23T16:34:24.636Z,99645.78
2023-02-23T16:36:57.644Z,99641.44
2023-02-23T16:39:29.141Z,99642.25
2023-02-23T16:41:58.551Z,99643.91
2023-02-23T16:44:41.408Z,99649.03
2023-02-23T16:47:36.147Z,99645.56
2023-02-23T16:50:20.231Z,99650.69
2023-02-23T16:52:51.723Z,99651.53
2023-02-23T16:55:25.370Z,99651.53
2023-02-23T16:57:55.436Z,99653.19
2023-02-23T17:00:27.013Z,99655.69
2023-02-23T17:02:55.685Z,99654.88
2023-02-23T17:05:24.474Z,99656.53
2023-02-23T17:07:52.942Z,99658.25
2023-02-23T17:10:26.695Z,99654.81
2023-02-23T17:12:55.738Z,99650.56
2023-02-23T17:15:27.451Z,99664.34
2023-02-23T17:17:56.089Z,99661.63
2023-02-23T17:20:25.906Z,99664.16
2023-02-23T17:22:54.872Z,99670.16
2023-02-23T17:25:26.442Z,99661.50
2023-02-23T17:27:54.385Z,99665.75
2023-02-23T17:30:22.996Z,99663.16
2023-02-23T17:32:53.156Z,99655.34
2023-02-23T17:35:21.021Z,99660.47
2023-02-23T17:37:48.686Z,99667.31
2023-02-23T17:40:18.390Z,99671.50
2023-02-23T17:42:45.979Z,99665.38
2023-02-23T17:45:13.570Z,99673.84
2023-02-23T17:47:42.552Z,99672.06
2023-02-23T17:50:12.521Z,99678.00
2023-02-23T17:52:40.088Z,99672.84
2023-02-23T17:55:08.785Z,99678.88
2023-02-23T17:57:36.686Z,99676.28
2023-02-23T18:00:06.840Z,99672.84
2023-02-23T18:02:39.562Z,99671.06
2023-02-23T18:05:08.123Z,99679.59
2023-02-23T18:07:37.669Z,99679.53
2023-02-23T18:10:05.932Z,99673.47
2023-02-23T18:12:34.045Z,99676.91
2023-02-23T18:15:01.649Z,99677.72
2023-02-23T18:17:32.422Z,99678.50
2023-02-23T18:20:00.308Z,99676.66
2023-02-23T18:22:28.262Z,99679.25
2023-02-23T18:24:58.238Z,99673.19
2023-02-23T18:27:26.133Z,99675.72
2023-02-23T18:29:53.746Z,99683.34
2023-02-23T18:32:21.529Z,99688.56
2023-02-23T18:34:49.316Z,99687.72
2023-02-23T18:37:25.436Z,99687.66
2023-02-23T18:39:54.370Z,99688.41
2023-02-23T18:42:23.405Z,99689.25
2023-02-23T18:44:50.986Z,99688.34
2023-02-23T18:47:19.173Z,99679.81
2023-02-23T18:49:47.628Z,99675.53
2023-02-23T18:52:15.389Z,99673.78
2023-02-23T18:54:42.952Z,99666.91
2023-02-23T18:57:10.550Z,99674.53
2023-02-23T18:59:39.489Z,99668.47
2023-02-23T19:02:07.131Z,99676.91
2023-02-23T19:04:36.691Z,99678.59
2023-02-23T19:07:04.346Z,99676.81
2023-02-23T19:09:32.490Z,99675.94
2023-02-23T19:12:00.241Z,99676.88
2023-02-23T19:14:47.824Z,99676.03
2023-02-23T19:17:16.687Z,99672.53
2023-02-23T19:19:44.540Z,99666.44
2023-02-23T19:22:12.184Z,99668.13
2023-02-23T19:24:40.638Z,99665.47
2023-02-23T19:27:09.973Z,99667.06
2023-02-23T19:29:37.808Z,99663.53
2023-02-23T19:32:06.173Z,99672.06
2023-02-23T19:34:35.234Z,99666.81
2023-02-23T19:37:02.947Z,99670.28
2023-02-23T19:39:30.950Z,99668.50
2023-02-23T19:41:58.584Z,99666.78
2023-02-23T19:44:26.176Z,99666.75
2023-02-23T19:46:53.902Z,99663.25
2023-02-23T19:49:21.520Z,99664.94
2023-02-23T19:51:50.670Z,99668.41
2023-02-23T19:54:18.242Z,99671.06
2023-02-23T19:56:46.027Z,99676.22
2023-02-23T19:59:13.710Z,99678.69
2023-02-23T20:01:43.443Z,99671.72
2023-02-23T20:04:10.988Z,99674.31
2023-02-23T20:06:44.531Z,99675.16
2023-02-23T20:09:14.163Z,99675.94
2023-02-23T20:11:42.582Z,99675.00
2023-02-23T20:14:12.273Z,99673.19
2023-02-23T20:16:39.947Z,99678.28
2023-02-23T20:19:07.776Z,99678.22
2023-02-23T20:21:36.629Z,99679.94
2023-02-23T20:24:05.559Z,99674.00
2023-02-23T20:26:36.853Z,99677.44
2023-02-23T20:29:06.677Z,99673.13
2023-02-23T20:31:36.458Z,99685.16
2023-02-23T20:34:07.493Z,99671.31
2023-02-23T20:36:35.314Z,99681.50
2023-02-23T20:39:03.682Z,99687.53
2023-02-23T20:41:31.940Z,99678.97
2023-02-23T20:44:01.675Z,99684.09
2023-02-23T20:46:30.547Z,99677.25
2023-02-23T20:48:59.413Z,99677.16
2023-02-23T20:51:27.596Z,99668.56
2023-02-23T20:53:55.669Z,99664.25
2023-02-23T20:56:23.540Z,99671.84
2023-02-23T20:58:54.520Z,99665.75
2023-02-23T21:01:26.190Z,99668.34
2023-02-23T21:03:55.087Z,99671.88
2023-02-23T21:06:24.426Z,99669.38
2023-02-23T21:08:55.773Z,99666.84
2023-02-23T21:11:26.418Z,99672.94
2023-02-23T21:13:54.121Z,99673.03
2023-02-23T21:16:24.467Z,99677.31
2023-02-23T21:19:03.845Z,99670.47
2023-02-23T21:21:32.733Z,99673.06
2023-02-23T21:24:00.700Z,99665.31
2023-02-23T21:26:30.379Z,99667.88
2023-02-23T21:28:58.227Z,99663.53
2023-02-23T21:31:27.379Z,99670.34
2023-02-23T21:33:55.405Z,99674.63
2023-02-23T21:36:23.229Z,99672.06
2023-02-23T21:38:51.243Z,99667.72
2023-02-23T21:41:19.174Z,99666.81
2023-02-23T21:43:47.671Z,99663.47
2023-02-23T21:46:17.207Z,99672.09
2023-02-23T21:48:46.125Z,99662.63
2023-02-23T21:51:15.987Z,99662.59
2023-02-23T21:53:45.190Z,99666.00
2023-02-23T21:56:14.780Z,99657.50
2023-02-23T21:58:46.195Z,99667.00
2023-02-23T22:01:16.096Z,99665.31
2023-02-23T22:03:44.985Z,99651.56
2023-02-23T22:06:14.770Z,99656.75
2023-02-23T22:08:44.724Z,99650.75
2023-02-23T22:11:17.480Z,99660.16
2023-02-23T22:13:45.639Z,99660.91
2023-02-23T22:16:14.604Z,99667.72
2023-02-23T22:18:42.956Z,99667.72
2023-02-23T22:21:11.593Z,99661.69
2023-02-23T22:23:41.640Z,99654.84
2023-02-23T22:26:09.550Z,99665.16
2023-02-23T22:28:37.567Z,99659.13
2023-02-23T22:31:08.165Z,99657.31
2023-02-23T22:33:36.527Z,99663.19
2023-02-23T22:36:06.645Z,99652.00
2023-02-23T22:38:34.701Z,99648.59
2023-02-23T22:41:07.209Z,99653.78
2023-02-23T22:43:35.075Z,99651.19
2023-02-23T22:46:02.714Z,99646.03
2023-02-23T22:48:30.319Z,99651.25
2023-02-23T22:50:58.855Z,99650.44
2023-02-23T22:53:27.500Z,99654.72
2023-02-23T22:55:57.228Z,99658.16
2023-02-23T22:58:27.300Z,99653.78
2023-02-23T23:01:04.639Z,99655.50
2023-02-23T23:03:35.352Z,99652.91
2023-02-23T23:06:03.785Z,99655.53
2023-02-23T23:08:36.312Z,99654.69
2023-02-23T23:11:09.280Z,99660.72
2023-02-23T23:13:45.064Z,99652.13
2023-02-23T23:16:28.916Z,99645.59
2023-02-23T23:19:02.227Z,99648.16
2023-02-23T23:21:32.335Z,99647.22
2023-02-23T23:24:02.032Z,99645.47
2023-02-23T23:26:31.709Z,99638.53
2023-02-23T23:29:04.644Z,99640.09
2023-02-23T23:31:34.610Z,99633.19
2023-02-23T23:34:04.801Z,99634.97
2023-02-23T23:36:37.123Z,99632.28
2023-02-23T23:39:06.014Z,99632.28
2023-02-23T23:41:35.226Z,99626.13
2023-02-23T23:44:05.724Z,99633.84
2023-02-23T23:46:37.408Z,99627.66
2023-02-23T23:49:08.160Z,99626.84
2023-02-23T23:51:38.714Z,99631.97
2023-02-23T23:54:08.533Z,99627.47
2023-02-23T23:56:37.264Z,99624.81
2023-02-23T23:59:08.087Z,99625.66
